Time;durP1;ratioP1;P1;durP2;ratioP2;P2;SDS_P1;SDS_P2;PMS_P1;PMS_P2;Temp;Humidity;BMP_temperature;BMP_pressure;BME280_temperature;BME280_humidity;BME280_pressure;Samples;Min_cycle;Max_cycle;Signal;HPM_P1;HPM_P2
2022/06/03 00:01:04;;;;;;;1.37;1.27;;;20.40;51.90;;;;;;5022490;28;20288;-93
2022/06/03 00:03:57;;;;;;;1.40;1.30;;;20.40;51.90;;;;;;5028436;28;20195;-93
2022/06/03 00:06:35;;;;;;;1.47;1.37;;;20.40;52.00;;;;;;5033582;28;20242;-93
2022/06/03 00:09:20;;;;;;;1.40;1.30;;;20.40;52.00;;;;;;5005946;28;20251;-94
2022/06/03 00:12:00;;;;;;;1.47;1.20;;;20.40;52.00;;;;;;5031772;28;20175;-93
2022/06/03 00:14:59;;;;;;;1.40;1.30;;;20.40;52.10;;;;;;5036671;28;20278;-93
2022/06/03 00:17:43;;;;;;;2.80;1.20;;;20.40;52.10;;;;;;5029250;28;20184;-93
2022/06/03 00:20:11;;;;;;;1.07;1.00;;;20.40;52.20;;;;;;5028745;28;20197;-93
2022/06/03 00:22:58;;;;;;;1.83;1.30;;;20.30;52.20;;;;;;5047098;28;20202;-95
2022/06/03 00:29:14;;;;;;;1.53;1.23;;;20.30;52.30;;;;;;5072522;28;20259;-95
2022/06/03 00:31:48;;;;;;;1.30;1.20;;;20.30;52.30;;;;;;5056308;28;20165;-95
2022/06/03 00:37:48;;;;;;;1.37;1.20;;;20.20;52.30;;;;;;5074658;28;20171;-95
2022/06/03 00:40:33;;;;;;;1.63;1.30;;;20.20;52.40;;;;;;5057367;28;20237;-95
2022/06/03 00:46:16;;;;;;;1.60;1.20;;;20.20;52.50;;;;;;5072058;28;20222;-95
2022/06/03 00:49:03;;;;;;;1.17;1.07;;;20.20;52.50;;;;;;5057513;28;20164;-95
2022/06/03 00:51:35;;;;;;;1.30;1.07;;;20.20;52.60;;;;;;5054245;28;20180;-94
2022/06/03 00:54:25;;;;;;;2.50;1.40;;;20.10;52.60;;;;;;5056123;28;20176;-94
2022/06/03 00:57:03;;;;;;;1.00;1.00;;;20.20;52.70;;;;;;5056773;28;20195;-95
2022/06/03 00:59:40;;;;;;;1.77;1.30;;;20.10;52.70;;;;;;5056503;28;20183;-94
2022/06/03 01:02:28;;;;;;;1.00;1.00;;;20.10;52.70;;;;;;5056614;28;20191;-95
2022/06/03 01:05:47;;;;;;;1.20;1.10;;;20.10;52.80;;;;;;5054605;28;20189;-95
2022/06/03 01:08:25;;;;;;;1.30;1.20;;;20.10;52.80;;;;;;5072367;28;20140;-95
2022/06/03 01:14:36;;;;;;;1.17;1.07;;;20.00;52.80;;;;;;5073086;28;20199;-95
2022/06/03 01:17:25;;;;;;;0.90;0.90;;;20.00;52.80;;;;;;5057668;28;20167;-95
2022/06/03 01:20:06;;;;;;;1.20;1.10;;;20.00;52.80;;;;;;5044193;28;20188;-95
2022/06/03 01:29:54;;;;;;;1.47;1.10;;;20.00;53.00;;;;;;5073936;28;20140;-94
2022/06/03 01:33:07;;;;;;;1.37;1.27;;;20.00;53.00;;;;;;5059864;28;20187;-95
2022/06/03 01:36:01;;;;;;;1.20;1.10;;;19.90;53.00;;;;;;5058977;28;20163;-95
2022/06/03 01:38:38;;;;;;;1.33;1.23;;;19.90;53.00;;;;;;5059454;28;20199;-94
2022/06/03 01:41:13;;;;;;;1.50;1.20;;;19.90;53.00;;;;;;5058815;28;20163;-95
2022/06/03 01:43:38;;;;;;;1.20;1.10;;;19.90;53.00;;;;;;5059835;28;20177;-93
2022/06/03 01:46:24;;;;;;;1.10;1.00;;;19.90;53.10;;;;;;5059952;28;20267;-93
2022/06/03 01:48:53;;;;;;;1.20;1.10;;;19.90;53.10;;;;;;5058978;28;20193;-94
2022/06/03 01:51:51;;;;;;;1.30;1.20;;;19.90;53.10;;;;;;5059415;28;20231;-94
2022/06/03 01:54:55;;;;;;;1.10;1.00;;;19.80;53.00;;;;;;5059196;28;20175;-94
2022/06/03 01:57:33;;;;;;;1.40;1.10;;;19.80;53.00;;;;;;5059139;28;20177;-94
2022/06/03 02:00:08;;;;;;;1.30;1.20;;;19.80;53.10;;;;;;5059934;28;20182;-95
2022/06/03 02:02:46;;;;;;;1.30;1.20;;;19.80;53.10;;;;;;5059411;28;20194;-94
2022/06/03 02:05:49;;;;;;;1.50;1.03;;;19.80;53.10;;;;;;5060368;28;20254;-95
2022/06/03 02:08:51;;;;;;;0.90;0.90;;;19.80;53.10;;;;;;5058623;28;20192;-94
2022/06/03 02:11:45;;;;;;;1.00;1.00;;;19.80;53.10;;;;;;5059100;28;20211;-94
2022/06/03 02:14:20;;;;;;;1.20;1.00;;;19.80;53.10;;;;;;5059882;28;20175;-95
2022/06/03 02:17:26;;;;;;;1.30;1.10;;;19.70;53.10;;;;;;5060612;28;20169;-95
2022/06/03 02:19:55;;;;;;;2.07;1.30;;;19.70;53.10;;;;;;5059849;28;20177;-94
2022/06/03 02:26:11;;;;;;;1.30;1.20;;;19.70;53.10;;;;;;5071700;28;20205;-95
2022/06/03 02:31:52;;;;;;;1.30;1.20;;;19.70;53.20;;;;;;5063387;28;20175;-95
2022/06/03 02:34:56;;;;;;;1.23;1.13;;;19.70;53.20;;;;;;5057555;28;20199;-95
2022/06/03 02:37:59;;;;;;;1.50;1.10;;;19.70;53.20;;;;;;5002161;28;20187;-94
2022/06/03 02:40:43;;;;;;;1.07;0.93;;;19.60;53.10;;;;;;5039474;28;20260;-94
2022/06/03 02:43:25;;;;;;;1.00;1.00;;;19.60;53.10;;;;;;5038308;28;20179;-94
2022/06/03 02:46:22;;;;;;;1.23;1.13;;;19.60;53.20;;;;;;5039669;28;20728;-94
2022/06/03 02:49:12;;;;;;;1.20;1.10;;;19.60;53.20;;;;;;5024830;28;20172;-94
2022/06/03 02:55:29;;;;;;;1.20;1.10;;;19.60;53.20;;;;;;5054542;28;20194;-94
2022/06/03 02:58:16;;;;;;;1.23;1.10;;;19.50;53.20;;;;;;5037586;28;20572;-93
2022/06/03 03:01:10;;;;;;;1.20;1.10;;;19.50;53.20;;;;;;5038232;28;20185;-94
2022/06/03 03:03:38;;;;;;;1.10;1.00;;;19.50;53.20;;;;;;5034997;28;20186;-93
2022/06/03 03:06:40;;;;;;;1.10;1.00;;;19.50;53.20;;;;;;5033597;28;20603;-94
2022/06/03 03:09:28;;;;;;;1.00;1.00;;;19.50;53.20;;;;;;5027983;28;20198;-94
2022/06/03 03:11:56;;;;;;;1.43;1.20;;;19.50;53.30;;;;;;5018844;28;20463;-94
2022/06/03 03:14:43;;;;;;;1.40;1.10;;;19.50;53.30;;;;;;5036379;28;20460;-92
2022/06/03 03:17:31;;;;;;;1.00;0.90;;;19.50;53.30;;;;;;5037749;28;20183;-93
2022/06/03 03:20:22;;;;;;;1.10;1.00;;;19.40;53.30;;;;;;5038022;28;20171;-92
2022/06/03 03:23:06;;;;;;;0.90;0.90;;;19.40;53.30;;;;;;5038604;28;20179;-92
2022/06/03 03:26:12;;;;;;;1.43;1.13;;;19.40;53.30;;;;;;5036718;28;20174;-92
2022/06/03 03:29:08;;;;;;;1.20;1.10;;;19.40;53.30;;;;;;4992146;28;20239;-92
2022/06/03 03:32:03;;;;;;;1.07;1.00;;;19.40;53.30;;;;;;5020023;28;20184;-92
2022/06/03 03:35:04;;;;;;;1.20;1.10;;;19.40;53.30;;;;;;5009648;28;20353;-92
2022/06/03 03:37:52;;;;;;;1.10;1.00;;;19.40;53.30;;;;;;5034577;28;20178;-92
2022/06/03 03:44:33;;;;;;;1.40;1.20;;;19.30;53.30;;;;;;5042885;28;20379;-92
2022/06/03 03:47:53;;;;;;;1.60;1.07;;;19.30;53.40;;;;;;5020317;28;20214;-94
2022/06/03 03:50:33;;;;;;;2.40;1.10;;;19.30;53.40;;;;;;4936558;29;20182;-93
2022/06/03 03:53:29;;;;;;;1.17;1.10;;;19.30;53.40;;;;;;5022824;28;20213;-93
2022/06/03 03:56:41;;;;;;;1.10;1.07;;;19.30;53.40;;;;;;5035606;28;20367;-93
2022/06/03 03:59:39;;;;;;;1.37;1.13;;;19.30;53.40;;;;;;5030766;28;20619;-93
2022/06/03 04:02:41;;;;;;;0.90;0.90;;;19.30;53.40;;;;;;5033598;28;20645;-93
2022/06/03 04:05:26;;;;;;;1.07;0.97;;;19.30;53.50;;;;;;5035233;28;20170;-93
2022/06/03 04:08:29;;;;;;;1.20;1.10;;;19.30;53.50;;;;;;5027967;28;20235;-93
2022/06/03 04:11:22;;;;;;;1.50;1.00;;;19.30;53.50;;;;;;5030794;28;20269;-93
2022/06/03 04:14:25;;;;;;;1.13;1.03;;;19.30;53.50;;;;;;5034169;28;20556;-93
2022/06/03 04:17:12;;;;;;;1.13;1.10;;;19.30;53.50;;;;;;5035962;28;20274;-94
2022/06/03 04:19:57;;;;;;;1.10;1.00;;;19.30;53.50;;;;;;5036512;28;20540;-93
2022/06/03 04:22:47;;;;;;;1.20;1.10;;;19.30;53.50;;;;;;5035651;28;20202;-93
2022/06/03 04:25:38;;;;;;;1.30;1.20;;;19.30;53.40;;;;;;5034488;28;20461;-93
2022/06/03 04:28:20;;;;;;;1.07;0.97;;;19.30;53.40;;;;;;5035653;28;20185;-93
2022/06/03 04:31:09;;;;;;;1.13;1.10;;;19.30;53.40;;;;;;5037522;28;20200;-93
2022/06/03 04:34:10;;;;;;;1.33;0.90;;;19.30;53.40;;;;;;5035957;28;20168;-94
2022/06/03 04:36:57;;;;;;;1.30;1.20;;;19.30;53.40;;;;;;5040141;28;20544;-95
2022/06/03 04:39:45;;;;;;;1.30;1.10;;;19.30;53.40;;;;;;5044870;28;20170;-94
2022/06/03 04:42:39;;;;;;;1.10;1.00;;;19.30;53.40;;;;;;5043748;28;20170;-94
2022/06/03 04:45:34;;;;;;;1.30;1.20;;;19.40;53.50;;;;;;5044754;28;20173;-95
2022/06/03 04:48:09;;;;;;;1.73;1.10;;;19.40;53.40;;;;;;5043194;28;20269;-94
2022/06/03 04:51:04;;;;;;;1.40;1.20;;;19.40;53.80;;;;;;5038982;28;20242;-95
2022/06/03 04:53:54;;;;;;;1.23;1.10;;;19.40;53.40;;;;;;5045330;28;20164;-95
2022/06/03 04:56:38;;;;;;;1.20;1.10;;;19.50;53.40;;;;;;5045558;28;20191;-95
2022/06/03 04:59:46;;;;;;;1.20;1.10;;;19.50;53.40;;;;;;5050810;28;20179;-95
2022/06/03 05:02:50;;;;;;;1.60;1.20;;;19.50;53.40;;;;;;5053001;28;20198;-95
2022/06/03 05:05:47;;;;;;;1.20;1.10;;;19.50;53.40;;;;;;5052323;28;20207;-95
2022/06/03 05:08:55;;;;;;;1.37;1.20;;;19.60;53.40;;;;;;5052343;28;20176;-95
2022/06/03 05:11:55;;;;;;;1.20;1.10;;;19.60;53.40;;;;;;5052969;28;20175;-95
2022/06/03 05:15:21;;;;;;;1.37;1.27;;;19.70;53.40;;;;;;5056295;28;20175;-95
2022/06/03 05:18:02;;;;;;;1.40;1.20;;;19.70;53.40;;;;;;5054685;28;20189;-95
2022/06/03 05:20:30;;;;;;;1.20;1.10;;;19.70;53.30;;;;;;5058298;28;20156;-95
2022/06/03 05:23:25;;;;;;;1.30;1.20;;;19.80;53.30;;;;;;5056452;28;20172;-95
2022/06/03 05:25:59;;;;;;;1.60;1.37;;;19.80;53.30;;;;;;5055997;28;20188;-95
2022/06/03 05:28:32;;;;;;;1.10;1.00;;;19.90;53.30;;;;;;5056113;28;20174;-95
2022/06/03 05:31:19;;;;;;;1.33;1.23;;;19.90;53.20;;;;;;5059856;28;20162;-95
2022/06/03 05:34:16;;;;;;;1.30;1.20;;;20.00;53.20;;;;;;5059831;28;20206;-95
2022/06/03 05:36:45;;;;;;;1.40;1.30;;;20.00;53.10;;;;;;5060736;28;20168;-95
2022/06/03 05:39:32;;;;;;;2.07;1.47;;;20.10;53.10;;;;;;5059615;28;20186;-95
2022/06/03 05:42:32;;;;;;;1.47;1.33;;;20.10;53.00;;;;;;5059510;28;20174;-95
2022/06/03 05:45:32;;;;;;;2.47;1.40;;;20.20;52.90;;;;;;5037040;28;20438;-95
2022/06/03 05:48:00;;;;;;;1.30;1.00;;;20.30;52.80;;;;;;5032697;28;20504;-95
2022/06/03 05:51:04;;;;;;;1.87;1.30;;;20.40;52.50;;;;;;5041455;28;20183;-94
2022/06/03 05:53:54;;;;;;;1.50;1.10;;;20.50;52.20;;;;;;5033525;28;20172;-94
2022/06/03 05:56:48;;;;;;;1.73;1.20;;;20.70;52.00;;;;;;5039685;28;20376;-94
2022/06/03 06:00:16;;;;;;;2.30;1.27;;;21.00;51.60;;;;;;5041503;28;20186;-95
2022/06/03 06:02:52;;;;;;;1.93;1.47;;;21.40;50.90;;;;;;4940668;29;20203;-95
2022/06/03 06:05:56;;;;;;;2.17;1.40;;;21.80;50.10;;;;;;4938316;29;20358;-94
2022/06/03 06:08:32;;;;;;;1.77;1.30;;;22.10;49.40;;;;;;4934966;28;20486;-94
2022/06/03 06:14:33;;;;;;;4.13;1.80;;;22.40;48.80;;;;;;4971929;28;20265;-94
2022/06/03 06:17:29;;;;;;;2.60;1.67;;;22.60;48.50;;;;;;5036689;28;20219;-95
2022/06/03 06:19:59;;;;;;;3.00;2.00;;;22.80;48.30;;;;;;5062706;28;20212;-95
2022/06/03 06:22:29;;;;;;;2.40;1.70;;;22.90;48.10;;;;;;5061732;28;20175;-95
2022/06/03 06:25:14;;;;;;;3.47;2.10;;;22.90;48.00;;;;;;5059844;28;20160;-96
2022/06/03 06:28:03;;;;;;;3.83;2.03;;;23.10;47.90;;;;;;5061107;28;20192;-95
2022/06/03 06:30:56;;;;;;;2.63;1.87;;;23.30;47.70;;;;;;5061441;28;20167;-95
2022/06/03 06:33:33;;;;;;;3.83;1.90;;;23.40;47.50;;;;;;5061874;28;20287;-95
2022/06/03 06:36:34;;;;;;;2.67;1.80;;;23.50;47.40;;;;;;5060633;28;20239;-95
2022/06/03 06:39:00;;;;;;;3.90;1.90;;;23.60;47.30;;;;;;5011133;28;20180;-95
2022/06/03 06:48:37;;;;;;;3.83;1.70;;;23.80;47.10;;;;;;4989686;28;20328;-95
2022/06/03 06:51:22;;;;;;;2.73;1.80;;;23.80;47.10;;;;;;5063245;28;20148;-94
2022/06/03 06:53:55;;;;;;;2.83;2.03;;;24.00;47.00;;;;;;5062159;28;20152;-96
2022/06/03 06:56:55;;;;;;;4.33;2.27;;;24.10;46.90;;;;;;5061420;28;20262;-95
2022/06/03 06:59:35;;;;;;;5.37;1.90;;;24.20;46.80;;;;;;5058392;28;20230;-95
2022/06/03 07:02:04;;;;;;;2.87;2.30;;;24.40;46.70;;;;;;5058635;28;20191;-95
2022/06/03 07:05:12;;;;;;;3.23;2.00;;;24.40;46.60;;;;;;5058944;28;20164;-95
2022/06/03 07:07:37;;;;;;;2.73;2.10;;;24.60;46.50;;;;;;4959490;28;20192;-95
2022/06/03 07:10:41;;;;;;;2.77;2.10;;;24.60;46.60;;;;;;4952381;29;20252;-96
2022/06/03 07:13:12;;;;;;;2.50;1.93;;;24.60;46.60;;;;;;5035462;28;20210;-93
2022/06/03 07:16:02;;;;;;;2.95;2.20;;;24.70;46.50;;;;;;5060310;28;20164;-93
2022/06/03 07:21:38;;;;;;;2.75;1.80;;;24.70;46.60;;;;;;5066724;28;20203;-93
2022/06/03 07:24:51;;;;;;;2.72;2.13;;;24.80;46.60;;;;;;5051574;28;20196;-93
2022/06/03 07:27:35;;;;;;;2.50;1.92;;;24.80;46.60;;;;;;5050227;28;20235;-93
2022/06/03 07:30:11;;;;;;;2.03;1.85;;;24.80;46.70;;;;;;5046535;28;20174;-93
2022/06/03 07:33:05;;;;;;;2.80;2.00;;;24.90;46.70;;;;;;5047143;28;20164;-93
2022/06/03 07:35:41;;;;;;;2.58;2.20;;;24.90;46.70;;;;;;5030069;28;20180;-93
2022/06/03 07:38:19;;;;;;;3.47;2.00;;;25.00;46.70;;;;;;5047046;28;20164;-93
2022/06/03 07:41:40;;;;;;;3.35;2.00;;;24.90;46.70;;;;;;5051199;28;20245;-94
2022/06/03 07:44:19;;;;;;;3.90;2.05;;;25.00;46.80;;;;;;5049336;28;20176;-93
2022/06/03 07:46:52;;;;;;;4.72;1.90;;;25.00;46.80;;;;;;5042664;28;20207;-93
2022/06/03 07:49:21;;;;;;;4.70;2.10;;;25.00;46.80;;;;;;5040048;28;20174;-93
2022/06/03 07:51:52;;;;;;;2.70;1.92;;;25.10;46.90;;;;;;5020542;28;20176;-92
2022/06/03 07:54:28;;;;;;;2.90;2.08;;;25.10;46.90;;;;;;5033473;28;20191;-93
2022/06/03 07:57:10;;;;;;;2.40;1.88;;;25.10;46.90;;;;;;5036419;28;20169;-93
2022/06/03 07:59:40;;;;;;;2.15;1.85;;;25.20;46.90;;;;;;5021940;28;20219;-92
2022/06/03 08:02:15;;;;;;;2.25;1.65;;;25.30;46.90;;;;;;5033175;28;20191;-92
2022/06/03 08:04:43;;;;;;;2.25;1.77;;;25.40;46.90;;;;;;5032731;28;20190;-93
2022/06/03 08:13:04;;;;;;;1.60;1.50;;;25.50;47.00;;;;;;5050020;28;20222;-92
2022/06/03 08:15:36;;;;;;;2.35;1.80;;;25.60;47.00;;;;;;5032664;28;20176;-93
2022/06/03 08:18:05;;;;;;;2.33;1.83;;;25.60;46.90;;;;;;5038516;28;20199;-94
2022/06/03 08:20:54;;;;;;;1.83;1.55;;;25.60;47.00;;;;;;5041043;28;20438;-92
2022/06/03 08:23:22;;;;;;;2.47;1.75;;;25.70;47.00;;;;;;5017139;28;20199;-93
2022/06/03 08:25:55;;;;;;;3.10;2.00;;;25.70;47.10;;;;;;5032385;28;20549;-92
2022/06/03 08:28:25;;;;;;;3.85;1.67;;;25.70;47.00;;;;;;5027802;28;20287;-92
2022/06/03 08:30:55;;;;;;;1.95;1.67;;;25.80;47.10;;;;;;5013528;28;20173;-93
2022/06/03 08:33:37;;;;;;;2.20;1.65;;;25.80;47.10;;;;;;5011902;28;20315;-92
2022/06/03 08:36:03;;;;;;;2.63;1.80;;;25.90;47.10;;;;;;5030081;28;20207;-93
2022/06/03 08:38:35;;;;;;;2.67;1.80;;;25.80;47.00;;;;;;5012256;28;20196;-92
2022/06/03 08:41:54;;;;;;;1.77;1.60;;;25.80;47.10;;;;;;5012949;28;20192;-93
2022/06/03 08:44:44;;;;;;;2.58;1.90;;;25.80;47.20;;;;;;4996139;28;20535;-93
2022/06/03 08:47:27;;;;;;;2.53;1.80;;;25.80;47.30;;;;;;5032619;28;20205;-93
2022/06/03 08:50:20;;;;;;;2.25;1.70;;;25.90;47.40;;;;;;5031779;28;20279;-93
2022/06/03 08:52:51;;;;;;;1.90;1.70;;;26.00;47.30;;;;;;5039649;28;20219;-93
2022/06/03 08:55:51;;;;;;;2.72;1.65;;;26.00;47.30;;;;;;5015828;28;20172;-92
2022/06/03 08:58:26;;;;;;;3.60;1.60;;;26.10;47.40;;;;;;5015559;28;20550;-92
2022/06/03 09:01:10;;;;;;;2.90;1.80;;;26.10;47.30;;;;;;5029160;28;20184;-93
2022/06/03 09:04:11;;;;;;;2.25;1.45;;;26.20;47.30;;;;;;5035829;28;20188;-93
2022/06/03 09:06:42;;;;;;;2.40;1.70;;;26.20;47.30;;;;;;5014380;28;20197;-93
2022/06/03 09:09:45;;;;;;;2.65;1.70;;;26.30;47.40;;;;;;5029397;28;20169;-93
2022/06/03 09:12:23;;;;;;;1.67;1.58;;;26.30;47.40;;;;;;5010987;28;20499;-93
2022/06/03 09:14:50;;;;;;;2.17;1.50;;;26.30;47.40;;;;;;5034404;28;20169;-93
2022/06/03 09:17:35;;;;;;;2.63;1.50;;;26.40;47.40;;;;;;5024262;28;20176;-93
2022/06/03 09:20:07;;;;;;;2.67;1.75;;;26.40;47.50;;;;;;5016824;28;20445;-93
2022/06/03 09:22:44;;;;;;;2.22;1.48;;;26.40;47.50;;;;;;5015513;28;20166;-93
2022/06/03 09:25:12;;;;;;;2.83;1.67;;;26.40;47.50;;;;;;5014292;28;20169;-93
2022/06/03 09:27:41;;;;;;;2.10;1.52;;;26.50;47.60;;;;;;5021882;28;20200;-93
2022/06/03 09:30:08;;;;;;;2.03;1.60;;;26.40;47.50;;;;;;5015536;28;20169;-93
2022/06/03 09:32:41;;;;;;;1.83;1.50;;;26.40;47.60;;;;;;5019667;28;20176;-94
2022/06/03 09:35:10;;;;;;;2.08;1.50;;;26.40;47.70;;;;;;5022305;28;20180;-93
2022/06/03 09:37:44;;;;;;;1.52;1.40;;;26.40;47.70;;;;;;5014599;28;20590;-93
2022/06/03 09:40:18;;;;;;;1.92;1.40;;;26.50;47.70;;;;;;5011063;28;20260;-93
2022/06/03 09:42:52;;;;;;;1.40;1.30;;;26.50;47.70;;;;;;5019273;28;20199;-93
2022/06/03 09:45:20;;;;;;;1.52;1.42;;;26.50;47.70;;;;;;5020674;28;20274;-93
2022/06/03 09:47:50;;;;;;;1.50;1.40;;;26.50;47.70;;;;;;5023517;28;20231;-94
2022/06/03 09:50:18;;;;;;;2.25;1.55;;;26.50;47.70;;;;;;5023528;28;20240;-93
2022/06/03 09:52:44;;;;;;;2.15;1.40;;;26.50;47.70;;;;;;5018539;28;20188;-93
2022/06/03 09:55:31;;;;;;;1.63;1.27;;;26.40;47.70;;;;;;5015683;28;20548;-92
2022/06/03 09:58:00;;;;;;;1.50;1.40;;;26.40;47.70;;;;;;5013786;28;20444;-93
2022/06/03 10:00:38;;;;;;;1.48;1.38;;;26.50;47.80;;;;;;5015415;28;20177;-93
2022/06/03 10:03:04;;;;;;;1.58;1.48;;;26.50;47.70;;;;;;5016634;28;20287;-93
2022/06/03 10:05:30;;;;;;;1.40;1.30;;;26.50;47.80;;;;;;5017276;28;20280;-93
2022/06/03 10:08:09;;;;;;;1.50;1.40;;;26.50;47.70;;;;;;5015592;28;20205;-93
2022/06/03 10:13:20;;;;;;;1.40;1.30;;;26.40;47.80;;;;;;5038269;28;20478;-92
2022/06/03 10:15:59;;;;;;;1.30;1.20;;;26.40;47.80;;;;;;5016168;28;20182;-93
2022/06/03 10:18:42;;;;;;;1.42;1.20;;;26.40;47.90;;;;;;5014886;28;20242;-93
2022/06/03 10:21:08;;;;;;;2.00;1.40;;;26.40;48.00;;;;;;5016710;28;20180;-93
2022/06/03 10:23:37;;;;;;;1.27;1.17;;;26.40;48.10;;;;;;5032921;28;20173;-93
2022/06/03 10:26:04;;;;;;;1.77;1.40;;;26.40;48.10;;;;;;5024071;28;20169;-93
2022/06/03 10:28:40;;;;;;;1.35;1.15;;;26.40;48.10;;;;;;5014243;28;20173;-93
2022/06/03 10:31:17;;;;;;;1.50;1.20;;;26.40;48.20;;;;;;5016161;28;20165;-93
2022/06/03 10:33:54;;;;;;;1.58;1.42;;;26.30;48.20;;;;;;5018009;28;20240;-93
2022/06/03 10:36:24;;;;;;;1.42;1.30;;;26.30;48.20;;;;;;5030693;28;20188;-93
2022/06/03 10:38:51;;;;;;;1.63;1.10;;;26.30;48.30;;;;;;5025067;28;20177;-92
2022/06/03 10:41:17;;;;;;;2.13;1.20;;;26.20;48.30;;;;;;5020387;28;20173;-93
2022/06/03 10:43:44;;;;;;;1.37;1.20;;;26.20;48.30;;;;;;5019288;28;20192;-93
2022/06/03 10:46:18;;;;;;;1.90;1.30;;;26.20;48.30;;;;;;5019889;28;20181;-93
2022/06/03 10:48:46;;;;;;;1.23;1.13;;;26.30;48.30;;;;;;5020329;28;20172;-93
2022/06/03 11:02:30;;;;;;;1.63;1.20;;;26.20;48.50;;;;;;5033505;28;20284;-92
2022/06/03 11:05:29;;;;;;;1.60;1.27;;;26.20;48.90;;;;;;5019287;28;20188;-93
2022/06/03 11:08:03;;;;;;;1.43;1.33;;;26.20;48.50;;;;;;5014534;28;20513;-93
2022/06/03 11:10:43;;;;;;;2.27;1.33;;;26.20;48.50;;;;;;5023505;28;20184;-93
2022/06/03 11:13:13;;;;;;;1.30;1.20;;;26.20;48.60;;;;;;5019039;28;20168;-92
2022/06/03 11:15:41;;;;;;;1.10;1.00;;;26.10;48.60;;;;;;5014567;28;20470;-93
2022/06/03 11:18:17;;;;;;;1.57;1.20;;;26.20;48.70;;;;;;5018159;28;20343;-92
2022/06/03 11:20:44;;;;;;;1.20;1.10;;;26.20;48.70;;;;;;5015115;28;20433;-93
2022/06/03 11:23:11;;;;;;;1.47;1.07;;;26.10;48.70;;;;;;5022577;28;20177;-93
2022/06/03 11:25:46;;;;;;;1.73;1.20;;;26.10;48.70;;;;;;5013068;28;20211;-93
2022/06/03 11:28:28;;;;;;;1.30;1.20;;;26.10;48.80;;;;;;5014009;28;20207;-93
2022/06/03 11:31:11;;;;;;;1.67;1.10;;;26.10;48.80;;;;;;5030207;28;20500;-93
2022/06/03 11:34:04;;;;;;;1.30;1.20;;;26.10;48.80;;;;;;5046505;28;20424;-93
2022/06/03 11:36:49;;;;;;;1.30;1.00;;;26.10;48.80;;;;;;5056241;28;20218;-93
2022/06/03 11:39:20;;;;;;;1.87;1.10;;;26.10;48.90;;;;;;5037873;28;20229;-93
2022/06/03 11:41:58;;;;;;;1.20;1.10;;;26.00;48.90;;;;;;5036860;28;20183;-94
2022/06/03 11:45:24;;;;;;;1.40;1.20;;;26.00;48.90;;;;;;5034685;28;20183;-93
2022/06/03 11:48:19;;;;;;;1.07;1.00;;;26.00;49.00;;;;;;5010070;28;20216;-93
2022/06/03 11:50:45;;;;;;;1.60;1.10;;;26.00;49.00;;;;;;5003758;28;20287;-93
2022/06/03 11:53:11;;;;;;;1.50;1.20;;;26.00;49.00;;;;;;5034799;28;20223;-93
2022/06/03 11:55:38;;;;;;;1.27;1.17;;;26.00;49.10;;;;;;5035211;28;20196;-92
2022/06/03 12:01:40;;;;;;;1.73;1.27;;;26.00;49.10;;;;;;5044739;28;20239;-94
2022/06/03 12:04:31;;;;;;;1.20;1.10;;;26.00;49.00;;;;;;5033844;28;20535;-94
2022/06/03 12:06:57;;;;;;;1.30;1.20;;;26.00;49.10;;;;;;5018858;28;20236;-94
2022/06/03 12:09:55;;;;;;;1.10;1.03;;;26.00;49.00;;;;;;5034739;28;20563;-94
2022/06/03 12:15:31;;;;;;;2.10;1.27;;;26.00;49.00;;;;;;5035762;28;20238;-93
2022/06/03 12:18:09;;;;;;;1.93;1.20;;;26.00;49.10;;;;;;5036601;28;20168;-92
2022/06/03 12:20:53;;;;;;;1.10;0.97;;;26.00;49.10;;;;;;5037104;28;20184;-91
2022/06/03 12:23:19;;;;;;;1.70;1.13;;;26.00;49.10;;;;;;5018519;28;20579;-93
2022/06/03 12:25:57;;;;;;;1.20;1.10;;;26.00;49.10;;;;;;5029187;28;20177;-92
2022/06/03 12:28:25;;;;;;;1.20;1.10;;;26.00;49.10;;;;;;5028138;28;20207;-92
2022/06/03 12:30:57;;;;;;;1.47;1.10;;;26.00;49.10;;;;;;5014822;28;20207;-92
2022/06/03 12:33:55;;;;;;;1.60;1.17;;;26.00;49.20;;;;;;5009280;28;20420;-92
2022/06/03 12:36:23;;;;;;;1.10;1.10;;;26.00;49.20;;;;;;4994354;28;20544;-92
2022/06/03 12:39:05;;;;;;;1.23;1.13;;;26.00;49.20;;;;;;5023928;28;20554;-91
2022/06/03 12:41:46;;;;;;;1.50;1.10;;;26.00;49.10;;;;;;5028859;28;20176;-92
2022/06/03 12:44:36;;;;;;;1.27;1.17;;;26.00;49.10;;;;;;5026962;28;20238;-93
2022/06/03 12:47:26;;;;;;;1.77;1.10;;;26.00;49.20;;;;;;5025511;28;20213;-92
2022/06/03 12:50:23;;;;;;;1.20;1.10;;;26.00;49.20;;;;;;5009082;28;20173;-91
2022/06/03 12:52:53;;;;;;;1.43;1.20;;;26.00;49.20;;;;;;5027040;28;20535;-92
2022/06/03 12:55:36;;;;;;;1.10;1.10;;;26.00;49.30;;;;;;5010303;28;20207;-92
2022/06/03 12:58:15;;;;;;;1.30;1.20;;;26.00;49.30;;;;;;5017417;28;20177;-92
2022/06/03 13:00:53;;;;;;;1.20;1.10;;;26.00;49.30;;;;;;5013921;28;20207;-92
2022/06/03 13:03:26;;;;;;;1.10;1.00;;;25.90;49.30;;;;;;5017370;28;20191;-93
2022/06/03 13:05:54;;;;;;;1.37;1.03;;;26.00;49.40;;;;;;5042151;28;20173;-93
2022/06/03 13:08:30;;;;;;;1.13;1.10;;;26.00;49.40;;;;;;5045572;28;20616;-93
2022/06/03 13:11:03;;;;;;;1.50;1.10;;;26.00;49.40;;;;;;5042457;28;20590;-94
2022/06/03 13:13:29;;;;;;;1.20;1.10;;;26.00;49.30;;;;;;5045136;28;20175;-95
2022/06/03 13:16:21;;;;;;;1.03;1.00;;;26.00;49.30;;;;;;5040611;28;20164;-95
2022/06/03 13:18:50;;;;;;;1.50;1.27;;;26.00;49.30;;;;;;5031372;28;20426;-94
2022/06/03 13:21:29;;;;;;;2.20;1.00;;;26.00;49.30;;;;;;5042173;28;20320;-94
2022/06/03 13:24:20;;;;;;;1.13;1.03;;;26.00;49.30;;;;;;5040283;28;20802;-92
2022/06/03 13:26:47;;;;;;;1.10;1.10;;;26.00;49.30;;;;;;5016889;28;20402;-92
2022/06/03 13:29:57;;;;;;;1.33;1.10;;;26.00;49.30;;;;;;5016855;28;20177;-92
2022/06/03 13:32:35;;;;;;;1.23;1.07;;;26.00;49.30;;;;;;5016104;28;20169;-92
2022/06/03 13:35:22;;;;;;;2.13;1.20;;;26.00;49.30;;;;;;5016192;28;20185;-92
2022/06/03 13:37:50;;;;;;;1.20;1.10;;;26.00;49.40;;;;;;5017136;28;20242;-94
2022/06/03 13:40:29;;;;;;;1.50;1.20;;;26.00;49.40;;;;;;5017323;28;20179;-92
2022/06/03 13:42:58;;;;;;;1.27;1.10;;;25.90;49.40;;;;;;5021531;28;20177;-94
2022/06/03 13:45:44;;;;;;;1.40;1.17;;;26.00;49.50;;;;;;5042321;28;20177;-93
2022/06/03 13:51:29;;;;;;;1.20;1.10;;;26.00;49.50;;;;;;5060364;28;20192;-92
2022/06/03 13:53:59;;;;;;;1.20;1.10;;;26.00;49.50;;;;;;5044445;28;20157;-92
2022/06/03 13:56:29;;;;;;;1.20;1.10;;;26.00;49.50;;;;;;5044376;28;20221;-93
2022/06/03 14:06:07;;;;;;;1.23;1.10;;;25.90;49.50;;;;;;5060670;28;20249;-93
2022/06/03 14:08:33;;;;;;;1.20;1.10;;;26.00;49.60;;;;;;5043265;28;20200;-93
2022/06/03 14:11:05;;;;;;;1.40;1.20;;;26.00;49.50;;;;;;5043350;28;20149;-93
2022/06/03 14:17:01;;;;;;;2.27;1.20;;;26.00;49.60;;;;;;5037789;28;20644;-92
2022/06/03 14:19:39;;;;;;;1.10;1.10;;;25.90;49.50;;;;;;5021062;28;20179;-94
2022/06/03 14:22:20;;;;;;;1.10;1.10;;;26.00;49.60;;;;;;5022704;28;20334;-92
2022/06/03 14:25:00;;;;;;;1.17;1.07;;;25.90;49.60;;;;;;5023052;28;20181;-92
2022/06/03 14:27:38;;;;;;;1.77;1.03;;;26.00;49.60;;;;;;5026409;28;20201;-93
2022/06/03 14:30:17;;;;;;;1.40;1.30;;;25.90;49.60;;;;;;5027969;28;20271;-92
2022/06/03 14:32:48;;;;;;;1.63;1.53;;;25.90;49.60;;;;;;5024491;28;20173;-93
2022/06/03 14:35:46;;;;;;;1.33;1.23;;;26.00;49.60;;;;;;5024911;28;20363;-93
2022/06/03 14:38:25;;;;;;;1.20;1.10;;;25.90;49.60;;;;;;5001266;28;20176;-94
2022/06/03 14:40:52;;;;;;;1.97;1.20;;;25.90;49.60;;;;;;5015975;28;20586;-92
2022/06/03 14:43:24;;;;;;;1.20;1.10;;;25.90;49.70;;;;;;5018261;28;20180;-92
2022/06/03 14:46:03;;;;;;;1.10;1.00;;;25.90;49.70;;;;;;5018244;28;20292;-92
2022/06/03 14:48:47;;;;;;;2.07;1.17;;;25.90;49.70;;;;;;5015306;28;20172;-93
2022/06/03 14:51:36;;;;;;;1.30;1.20;;;25.90;49.70;;;;;;5028930;28;20195;-92
2022/06/03 14:54:15;;;;;;;1.10;1.10;;;25.90;49.70;;;;;;5039500;28;20172;-92
2022/06/03 14:56:53;;;;;;;1.67;1.30;;;25.90;49.70;;;;;;5038081;28;20444;-92
2022/06/03 14:59:40;;;;;;;1.50;1.20;;;25.90;49.70;;;;;;5031787;28;20183;-92
2022/06/03 15:02:35;;;;;;;1.37;1.27;;;25.90;49.70;;;;;;5033601;28;20461;-92
2022/06/03 15:05:20;;;;;;;1.37;1.27;;;25.90;49.70;;;;;;5032200;28;20210;-92
2022/06/03 15:08:09;;;;;;;1.30;1.20;;;25.90;49.70;;;;;;5033416;28;20200;-92
2022/06/03 15:10:39;;;;;;;1.23;1.13;;;26.00;49.60;;;;;;5031683;28;20176;-92
2022/06/03 15:13:05;;;;;;;1.30;1.20;;;26.00;49.60;;;;;;5033631;28;20557;-93
2022/06/03 15:15:35;;;;;;;1.30;1.20;;;26.00;49.60;;;;;;5035730;28;20176;-92
2022/06/03 15:18:16;;;;;;;1.30;1.10;;;26.00;49.70;;;;;;5036288;28;20183;-92
2022/06/03 15:21:00;;;;;;;1.77;1.43;;;25.90;49.60;;;;;;5036159;28;20172;-91
2022/06/03 15:23:26;;;;;;;1.30;1.20;;;25.90;49.70;;;;;;5050515;28;20576;-93
2022/06/03 15:26:32;;;;;;;2.00;1.33;;;26.00;49.80;;;;;;5055066;28;20188;-94
2022/06/03 15:29:03;;;;;;;2.60;1.40;;;26.00;49.70;;;;;;5056064;28;20188;-93
2022/06/03 15:31:31;;;;;;;1.47;1.10;;;26.00;49.70;;;;;;5053129;28;20235;-93
2022/06/03 15:34:00;;;;;;;1.10;1.10;;;26.00;49.60;;;;;;5054118;28;20168;-93